WBSB

Brunei International Airport

Bandar Seri Begawan, Brunei Darussalam
TAF WBSB 221700Z 2218/2400 16003KT 9999 SCT014 FEW015CB TEMPO 2218/2220 8000 -SHRA BECMG 2304/2306 04012KT FEW016 FEW017CB
Issued Valid From Valid To
Jan-22 @ 17:00 UTC
(49 minutes ago)
Jan-22 @ 18:00 UTC
(in 11 minutes)
Jan-24 @ 00:00 UTC
(-1 days ago)
Jan-22 @ 18:00 to Jan-23 @ 04:00
TAF WBSB 221700Z 2218/2400 16003KT 9999 SCT014 FEW015CB
Wind Visibility Clouds
160° at 3 knots 10,000+ meters
  • Scattered at 1,400' AGL
  • Few at 1,500' AGL
Temporary Jan-22 @ 18:00 to Jan-22 @ 20:00
TEMPO 2218/2220 8000 -SHRA
Visibility Conditions
7,998 meters
  • Light Rain
Becoming Jan-23 @ 04:00 to Jan-24 @ 00:00
BECMG 2304/2306 04012KT FEW016 FEW017CB
Wind Visibility Clouds
40° at 12 knots 10,000+ meters
  • Few at 1,600' AGL
  • Few at 1,700' AGL
TAF WBSB 221700Z 2218/2400 16003KT 9999 SCT014 FEW015CB TEMPO 2218/2220 8000 -SHRA BECMG 2304/2306 04012KT FEW016 FEW017CB
Issued Jan-22 @ 17:00 UTC
(49 minutes ago)
Valid From Jan-22 @ 18:00 UTC
(in 11 minutes)
Valid To Jan-24 @ 00:00 UTC
(-1 days ago)
Jan-22 @ 18:00 - Jan-23 @ 04:00
Wind Visibility
160° at 3 knots 10,000+ meters
Clouds
  • Scattered at 1,400' AGL
  • Few at 1,500' AGL
Temporary Jan-22 @ 18:00 - Jan-22 @ 20:00
Conditions
  • Light Rain
Becoming Jan-23 @ 04:00 - Jan-24 @ 00:00
Wind Visibility
40° at 12 knots 10,000+ meters
Clouds
  • Few at 1,600' AGL
  • Few at 1,700' AGL